Time;durP1;ratioP1;P1;durP2;ratioP2;P2;SDS_P1;SDS_P2;PMS_P1;PMS_P2;Temp;Humidity;BMP_temperature;BMP_pressure;BME280_temperature;BME280_humidity;BME280_pressure;Samples;Min_cycle;Max_cycle;Signal;HPM_P1;HPM_P2
2023/07/24 00:02:56;;;;;;;4.27;2.90;;;;;;;20.69;61.24;99862.47;5097922;56;1136796;-66
2023/07/24 00:08:02;;;;;;;3.67;2.70;;;;;;;20.57;61.80;99861.39;5124493;56;1136965;-65
2023/07/24 00:13:08;;;;;;;2.55;2.35;;;;;;;20.42;62.22;99862.86;5129509;56;1137004;-65
2023/07/24 00:18:14;;;;;;;8.13;2.77;;;;;;;20.29;62.94;99860.08;5129277;56;1136650;-65
2023/07/24 00:23:19;;;;;;;5.72;2.60;;;;;;;20.19;63.10;99852.87;5169441;56;1136524;-65
2023/07/24 00:28:25;;;;;;;2.15;2.05;;;;;;;20.12;63.47;99847.47;5131178;56;1136477;-65
2023/07/24 00:33:31;;;;;;;10.50;3.02;;;;;;;20.08;63.61;99835.47;5084390;56;1136802;-65
2023/07/24 00:38:36;;;;;;;3.37;2.72;;;;;;;20.14;64.12;99832.52;5123162;56;1138677;-65
2023/07/24 00:43:42;;;;;;;4.58;3.72;;;;;;;20.24;64.83;99832.98;5106837;56;1136814;-65
2023/07/24 00:48:48;;;;;;;4.17;2.87;;;;;;;20.23;64.42;99850.11;5129941;56;1136785;-65
2023/07/24 00:53:55;;;;;;;2.85;2.42;;;;;;;20.02;64.45;99842.44;5124707;56;1136787;-65
2023/07/24 00:59:02;;;;;;;3.70;2.40;;;;;;;19.93;65.33;99843.63;5120345;56;1136647;-65
2023/07/24 01:04:08;;;;;;;7.28;2.58;;;;;;;19.77;66.04;99837.20;5109630;56;1136773;-65
2023/07/24 01:09:14;;;;;;;3.42;2.60;;;;;;;19.66;66.59;99841.77;5115311;56;1136753;-66
2023/07/24 01:14:26;;;;;;;2.72;2.52;;;;;;;19.56;66.98;99838.06;5162681;56;1136564;-65
2023/07/24 01:19:45;;;;;;;4.75;2.98;;;;;;;19.53;67.23;99830.94;5140509;56;1136745;-66
2023/07/24 01:25:13;;;;;;;4.48;3.02;;;;;;;19.56;67.61;99823.31;5116924;56;1136560;-66
2023/07/24 01:30:22;;;;;;;4.70;2.55;;;;;;;19.57;67.54;99820.95;5078121;56;1136739;-66
2023/07/24 01:35:32;;;;;;;3.32;2.60;;;;;;;19.54;67.63;99812.48;4993952;58;1136757;-65
2023/07/24 01:40:37;;;;;;;4.42;3.20;;;;;;;19.60;68.86;99807.66;5055645;56;1136559;-65
2023/07/24 01:45:42;;;;;;;8.00;2.87;;;;;;;19.65;68.80;99811.94;4964697;57;1136995;-65
2023/07/24 01:50:48;;;;;;;10.80;2.58;;;;;;;19.66;68.94;99806.89;5035068;57;1136698;-66
2023/07/24 01:55:54;;;;;;;3.00;2.42;;;;;;;19.61;68.94;99806.64;5034337;57;1138826;-65
2023/07/24 02:00:59;;;;;;;2.75;2.55;;;;;;;19.49;69.02;99812.19;5034925;56;1136767;-65
2023/07/24 02:06:05;;;;;;;2.72;2.47;;;;;;;19.34;69.75;99813.61;5035449;57;1136509;-65
2023/07/24 02:11:11;;;;;;;6.83;3.05;;;;;;;19.23;70.17;99807.44;5032710;57;1137047;-65
2023/07/24 02:16:16;;;;;;;9.70;3.00;;;;;;;19.17;70.58;99804.17;4973015;57;1136294;-65
2023/07/24 02:21:22;;;;;;;2.92;2.60;;;;;;;19.11;71.05;99806.26;5035749;57;1136608;-65
2023/07/24 02:26:27;;;;;;;2.95;2.67;;;;;;;19.03;71.37;99807.74;5052579;56;1136620;-65
2023/07/24 02:31:33;;;;;;;6.55;3.00;;;;;;;18.95;72.09;99812.70;5136002;56;1136923;-65
2023/07/24 02:36:41;;;;;;;3.72;2.96;;;;;;;18.92;72.63;99808.58;5084507;57;1136862;-65
2023/07/24 02:41:49;;;;;;;6.40;2.90;;;;;;;18.89;73.53;99814.30;5083628;56;1136760;-67
2023/07/24 02:46:55;;;;;;;3.27;3.07;;;;;;;18.86;73.78;99812.00;5070983;56;1136573;-65
2023/07/24 02:52:01;;;;;;;3.08;2.77;;;;;;;18.83;74.33;99811.54;5157520;56;1136861;-65
2023/07/24 02:57:07;;;;;;;2.67;2.47;;;;;;;18.80;74.35;99807.39;5170009;55;1136805;-65
2023/07/24 03:02:12;;;;;;;3.42;2.75;;;;;;;18.82;74.46;99805.35;5169887;56;1136778;-66
2023/07/24 03:07:18;;;;;;;5.10;3.22;;;;;;;18.80;74.88;99803.87;5084740;57;1136730;-65
2023/07/24 03:12:25;;;;;;;5.03;3.27;;;;;;;18.82;74.93;99804.02;5004379;57;1136546;-65
2023/07/24 03:17:31;;;;;;;6.40;3.52;;;;;;;18.88;75.04;99799.75;5076224;56;1136861;-65
2023/07/24 03:22:36;;;;;;;4.72;2.87;;;;;;;18.90;74.98;99798.55;5139279;56;1136782;-65
2023/07/24 03:27:42;;;;;;;7.90;3.35;;;;;;;18.94;75.12;99799.01;5070992;56;1136775;-65
2023/07/24 03:32:49;;;;;;;6.22;3.40;;;;;;;18.97;75.04;99795.41;5099646;57;1137257;-67
2023/07/24 03:37:54;;;;;;;6.03;3.35;;;;;;;19.00;75.22;99788.02;5134905;56;1136457;-65
2023/07/24 03:43:00;;;;;;;7.15;2.98;;;;;;;19.00;75.07;99776.79;5169906;56;1136403;-66
2023/07/24 03:48:06;;;;;;;8.98;3.37;;;;;;;19.05;75.12;99777.05;5117204;56;1137004;-65
2023/07/24 03:53:11;;;;;;;3.20;2.70;;;;;;;19.11;75.08;99772.76;5084691;56;1136647;-65
2023/07/24 03:58:17;;;;;;;4.42;2.85;;;;;;;19.17;75.07;99770.15;5084821;56;1136765;-65
2023/07/24 04:03:23;;;;;;;3.37;2.92;;;;;;;19.27;75.05;99773.83;5113510;56;1136957;-65
2023/07/24 04:08:28;;;;;;;4.58;3.20;;;;;;;19.36;75.24;99767.33;5017029;57;1136709;-65
2023/07/24 04:13:34;;;;;;;9.53;3.45;;;;;;;19.49;75.32;99759.89;5019374;57;1136673;-65
2023/07/24 04:18:39;;;;;;;8.78;3.75;;;;;;;19.56;75.40;99755.42;5072757;57;1136849;-65
2023/07/24 04:23:45;;;;;;;10.28;3.00;;;;;;;19.61;75.35;99757.02;5096986;56;1136638;-66
2023/07/24 04:28:51;;;;;;;19.30;3.75;;;;;;;19.67;75.46;99760.27;5132161;56;1257845;-65
2023/07/24 04:33:56;;;;;;;2.70;2.50;;;;;;;19.71;75.45;99768.22;5002063;57;1138664;-65
2023/07/24 04:39:02;;;;;;;4.55;3.00;;;;;;;19.75;75.49;99760.61;5002079;57;1136637;-65
2023/07/24 04:44:07;;;;;;;3.08;2.87;;;;;;;19.74;75.52;99753.07;5049400;56;1136862;-66
2023/07/24 04:49:13;;;;;;;3.12;2.65;;;;;;;19.73;75.34;99761.31;5083942;57;1136713;-65
2023/07/24 04:54:19;;;;;;;6.08;3.10;;;;;;;19.73;75.25;99758.63;5169490;56;1136693;-65
2023/07/24 04:59:25;;;;;;;3.20;2.92;;;;;;;19.73;75.14;99773.39;5169171;56;1137052;-65
2023/07/24 05:04:30;;;;;;;4.08;3.12;;;;;;;19.72;75.50;99775.23;5157580;56;1136653;-65
2023/07/24 05:09:36;;;;;;;3.30;2.85;;;;;;;19.71;75.74;99764.19;5001966;57;1136993;-65
2023/07/24 05:14:41;;;;;;;3.20;2.98;;;;;;;19.71;76.17;99772.24;5002004;57;1136567;-66
2023/07/24 05:19:47;;;;;;;7.00;3.40;;;;;;;19.75;76.31;99762.78;5048249;57;1136669;-65
2023/07/24 05:24:52;;;;;;;4.05;2.70;;;;;;;19.78;76.93;99769.11;5150350;56;1136627;-65
2023/07/24 05:29:58;;;;;;;5.62;2.98;;;;;;;19.79;77.10;99771.27;5098708;56;1136604;-65
2023/07/24 05:35:04;;;;;;;5.05;3.12;;;;;;;19.78;77.06;99768.27;5038938;57;1136795;-65
2023/07/24 05:40:10;;;;;;;4.00;2.98;;;;;;;19.78;77.81;99767.77;5061137;56;1136825;-66
2023/07/24 05:45:15;;;;;;;5.55;2.95;;;;;;;19.76;78.52;99768.98;5065154;56;1136572;-65
2023/07/24 05:50:21;;;;;;;9.38;3.40;;;;;;;19.77;79.02;99758.56;4983209;58;1136664;-65
2023/07/24 05:55:27;;;;;;;3.15;2.70;;;;;;;19.73;79.47;99748.73;4982921;57;1137113;-65
2023/07/24 06:00:32;;;;;;;4.50;3.45;;;;;;;19.76;80.36;99747.00;4985162;57;1136540;-66
2023/07/24 06:05:38;;;;;;;6.47;3.15;;;;;;;19.80;80.56;99731.34;5064883;57;1136910;-65
2023/07/24 06:10:43;;;;;;;3.30;2.92;;;;;;;19.84;81.00;99720.02;4982901;57;1136638;-65
2023/07/24 06:15:50;;;;;;;4.87;3.10;;;;;;;19.93;80.71;99723.36;5064782;56;1136791;-65
2023/07/24 06:20:56;;;;;;;5.26;4.04;;;;;;;19.95;81.09;99705.20;5070851;56;1136548;-66
2023/07/24 06:26:02;;;;;;;5.00;3.65;;;;;;;19.94;81.21;99717.80;5086196;56;1137122;-65
2023/07/24 06:31:07;;;;;;;3.40;2.87;;;;;;;19.91;81.56;99695.38;4999879;57;1136501;-65
2023/07/24 06:36:13;;;;;;;2.98;2.62;;;;;;;19.97;81.97;99701.81;5067907;56;1136547;-65
2023/07/24 06:41:21;;;;;;;2.76;2.56;;;;;;;20.02;81.91;99686.74;5035568;58;1136544;-65
2023/07/24 06:46:26;;;;;;;7.33;2.87;;;;;;;20.13;82.27;99692.59;5064995;56;1136570;-65
2023/07/24 06:51:31;;;;;;;5.03;3.00;;;;;;;20.22;82.04;99690.02;5035669;57;1136784;-65
2023/07/24 06:56:37;;;;;;;4.16;3.18;;;;;;;20.29;82.33;99686.34;5035554;57;1136780;-65
2023/07/24 07:01:42;;;;;;;2.87;2.62;;;;;;;20.38;81.54;99679.47;5034593;57;1136695;-65
2023/07/24 07:06:48;;;;;;;3.42;3.12;;;;;;;20.46;80.81;99675.27;5035475;57;1136843;-65
2023/07/24 07:11:54;;;;;;;3.37;3.05;;;;;;;20.55;80.95;99672.17;5035777;57;1136962;-66
2023/07/24 07:16:59;;;;;;;3.30;3.00;;;;;;;20.70;80.66;99666.62;5046526;57;1136834;-66
2023/07/24 07:22:05;;;;;;;3.90;3.33;;;;;;;20.90;80.37;99663.95;5106605;56;1136651;-66
2023/07/24 07:27:11;;;;;;;3.65;3.35;;;;;;;21.05;79.75;99670.78;5072660;57;1136620;-65
2023/07/24 07:32:16;;;;;;;3.85;3.00;;;;;;;21.18;79.02;99661.87;5017130;57;1136679;-66
2023/07/24 07:37:22;;;;;;;3.25;2.80;;;;;;;21.35;79.06;99660.95;5100441;56;1136688;-66
2023/07/24 07:42:27;;;;;;;3.30;3.00;;;;;;;21.69;79.06;99653.91;5149129;56;1136564;-65
2023/07/24 07:47:33;;;;;;;5.25;2.85;;;;;;;22.07;77.58;99648.63;5118734;57;1136899;-66
2023/07/24 07:52:38;;;;;;;3.90;3.60;;;;;;;22.40;74.52;99649.80;5058762;57;1136495;-65
2023/07/24 07:57:44;;;;;;;3.45;3.15;;;;;;;22.71;75.68;99650.31;5064586;56;1136745;-66
2023/07/24 08:02:50;;;;;;;3.30;3.00;;;;;;;23.02;74.88;99630.59;5064638;57;1136850;-65
2023/07/24 08:07:56;;;;;;;2.92;2.37;;;;;;;23.29;73.77;99632.51;5064724;56;1137100;-65
2023/07/24 08:13:01;;;;;;;4.83;2.55;;;;;;;23.60;71.52;99628.06;5064478;57;1136883;-65
2023/07/24 08:18:07;;;;;;;5.22;2.65;;;;;;;23.82;69.30;99615.23;5064866;56;1136840;-66
2023/07/24 08:23:13;;;;;;;3.72;1.95;;;;;;;23.93;70.13;99616.34;4982242;57;1136605;-66
2023/07/24 08:28:19;;;;;;;2.12;2.02;;;;;;;24.30;67.58;99604.10;5017579;56;1136668;-66
2023/07/24 08:33:25;;;;;;;5.15;2.62;;;;;;;24.60;66.79;99595.95;5055515;57;1136668;-66
2023/07/24 08:38:30;;;;;;;3.00;2.52;;;;;;;24.89;63.53;99591.84;5049071;57;1136738;-66
2023/07/24 08:43:38;;;;;;;2.45;2.25;;;;;;;25.06;61.94;99589.78;5035092;57;1136634;-66
2023/07/24 08:48:44;;;;;;;2.20;2.10;;;;;;;25.16;62.17;99589.50;5034594;58;1136615;-65
2023/07/24 08:53:50;;;;;;;1.92;1.82;;;;;;;25.42;62.27;99587.34;5034826;56;1136502;-66
2023/07/24 08:58:56;;;;;;;2.45;2.25;;;;;;;25.68;61.81;99580.59;4963227;58;1136871;-66
2023/07/24 09:04:02;;;;;;;2.27;2.17;;;;;;;25.71;61.44;99588.25;5034836;56;1136744;-65
2023/07/24 09:09:17;;;;;;;5.92;2.60;;;;;;;25.57;60.02;99583.07;4981899;58;1136419;-65
2023/07/24 09:14:28;;;;;;;5.03;3.17;;;;;;;25.51;60.21;99594.05;5034840;57;1136451;-64
2023/07/24 09:19:34;;;;;;;3.93;2.73;;;;;;;25.43;59.17;99597.11;4982978;57;1136383;-65
2023/07/24 09:24:54;;;;;;;5.12;2.72;;;;;;;25.35;59.85;99582.61;4990570;57;1136586;-66
2023/07/24 09:30:00;;;;;;;2.40;2.20;;;;;;;25.31;58.39;99591.72;4986620;57;1137264;-66
2023/07/24 09:35:08;;;;;;;4.20;2.92;;;;;;;25.47;58.87;99574.75;5034738;57;1136588;-66
2023/07/24 09:40:16;;;;;;;3.20;2.87;;;;;;;25.71;57.09;99569.29;5065001;56;1136694;-65
2023/07/24 09:45:22;;;;;;;4.40;2.42;;;;;;;25.78;58.08;99559.15;5064361;56;1136958;-65
2023/07/24 09:50:28;;;;;;;6.65;2.90;;;;;;;25.85;55.67;99570.12;5093352;56;1136810;-66
2023/07/24 09:55:41;;;;;;;4.58;3.20;;;;;;;25.81;57.08;99565.45;5168467;56;1136610;-65
2023/07/24 10:00:47;;;;;;;7.10;3.22;;;;;;;26.04;57.35;99552.31;5144897;56;1136643;-66
2023/07/24 10:05:54;;;;;;;2.33;2.22;;;;;;;26.33;55.78;99548.53;5063316;56;1136567;-66
2023/07/24 10:11:02;;;;;;;4.25;2.70;;;;;;;26.54;54.47;99541.03;5085254;56;1136785;-65
2023/07/24 10:16:08;;;;;;;9.98;2.80;;;;;;;26.56;53.91;99537.54;5212191;55;1136786;-65
2023/07/24 10:21:14;;;;;;;10.88;2.90;;;;;;;26.68;53.92;99536.63;5089224;56;1136799;-65
2023/07/24 10:26:28;;;;;;;5.58;2.00;;;;;;;26.68;52.27;99537.98;5056088;57;1139097;-66
2023/07/24 10:31:34;;;;;;;2.50;2.30;;;;;;;26.72;53.46;99535.06;5042429;56;1136800;-66
2023/07/24 10:36:40;;;;;;;3.47;2.87;;;;;;;26.80;51.62;99521.06;5074602;57;1136580;-66
2023/07/24 10:41:46;;;;;;;2.37;2.25;;;;;;;27.02;51.97;99532.01;5077623;56;1136527;-66
2023/07/24 10:46:53;;;;;;;9.00;2.40;;;;;;;27.29;51.55;99526.13;5064843;57;1136539;-66
2023/07/24 10:51:59;;;;;;;3.37;2.47;;;;;;;27.37;50.99;99530.28;5065022;57;1136604;-66
2023/07/24 10:57:05;;;;;;;32.78;13.83;;;;;;;27.41;50.74;99535.50;5098305;56;1136688;-66
2023/07/24 11:02:11;;;;;;;4.22;2.27;;;;;;;27.47;49.58;99522.27;5084462;56;1140742;-66
2023/07/24 11:07:17;;;;;;;2.65;2.45;;;;;;;27.43;48.75;99527.92;5008196;57;1136580;-65
2023/07/24 11:12:26;;;;;;;4.65;2.87;;;;;;;27.41;48.54;99513.23;5025008;57;1136887;-66
2023/07/24 11:17:40;;;;;;;2.40;2.20;;;;;;;27.50;49.58;99512.27;5035817;56;1136646;-66
2023/07/24 11:22:46;;;;;;;7.40;2.92;;;;;;;27.69;47.39;99503.25;5079982;57;1136854;-66
2023/07/24 11:27:52;;;;;;;8.05;3.30;;;;;;;27.78;47.58;99512.06;5056949;56;1136617;-65
2023/07/24 11:33:01;;;;;;;6.12;3.50;;;;;;;27.85;47.96;99496.91;5064630;57;1136857;-65
2023/07/24 11:38:09;;;;;;;3.85;2.42;;;;;;;27.86;47.99;99502.62;5064226;57;1136627;-65
2023/07/24 11:43:21;;;;;;;4.22;2.52;;;;;;;28.11;46.03;99487.90;5084381;56;1136938;-67
2023/07/24 11:48:27;;;;;;;5.55;2.55;;;;;;;28.17;45.80;99477.36;4974601;58;1136944;-66
2023/07/24 11:53:33;;;;;;;2.25;2.15;;;;;;;28.33;45.78;99471.54;4950847;58;1137380;-63
2023/07/24 11:58:39;;;;;;;2.98;2.50;;;;;;;28.46;46.20;99469.73;4972351;58;1137083;-64
2023/07/24 12:03:45;;;;;;;5.12;2.92;;;;;;;28.27;44.48;99467.95;4910720;58;1136604;-64
2023/07/24 12:08:51;;;;;;;4.50;3.33;;;;;;;27.95;44.91;99456.25;4907986;58;1136878;-64
2023/07/24 12:13:56;;;;;;;4.40;3.70;;;;;;;27.76;45.14;99457.16;4903420;58;1255778;-63
2023/07/24 12:19:02;;;;;;;3.72;3.40;;;;;;;27.80;45.24;99436.55;4969006;58;1136928;-64
2023/07/24 12:24:07;;;;;;;9.95;5.10;;;;;;;28.05;46.27;99425.07;5064706;57;1136855;-64
2023/07/24 12:29:13;;;;;;;6.07;4.93;;;;;;;28.25;44.15;99425.80;5118538;56;1139518;-63
2023/07/24 12:34:19;;;;;;;10.48;6.55;;;;;;;28.22;43.15;99411.37;5118420;56;1136817;-64
2023/07/24 12:39:24;;;;;;;7.47;6.78;;;;;;;28.16;43.73;99406.39;5118164;57;1138778;-63
2023/07/24 12:44:30;;;;;;;7.90;7.08;;;;;;;28.26;45.26;99388.02;5065841;56;1136729;-63
2023/07/24 12:49:35;;;;;;;8.40;7.25;;;;;;;28.17;43.80;99381.38;5035019;57;1136591;-63
2023/07/24 12:54:41;;;;;;;10.18;8.43;;;;;;;28.20;44.32;99378.17;4982654;58;1136614;-64
2023/07/24 12:59:47;;;;;;;11.48;6.25;;;;;;;28.22;43.83;99378.20;4982387;58;1138746;-63
2023/07/24 13:04:53;;;;;;;7.03;5.40;;;;;;;28.23;42.42;99379.02;4982217;57;1138711;-64
2023/07/24 13:09:59;;;;;;;8.10;4.95;;;;;;;28.31;43.00;99356.75;4900432;58;1136743;-64
2023/07/24 13:15:05;;;;;;;15.68;4.67;;;;;;;28.63;43.56;99364.81;5036900;57;1136801;-64
2023/07/24 13:20:12;;;;;;;6.33;4.03;;;;;;;28.81;42.77;99361.67;5059966;56;1138993;-64
2023/07/24 13:25:18;;;;;;;4.78;4.05;;;;;;;28.90;42.20;99345.63;5034952;56;1136808;-63
2023/07/24 13:30:23;;;;;;;5.37;4.50;;;;;;;29.19;43.44;99333.72;5034777;58;1137108;-63
2023/07/24 13:35:29;;;;;;;5.08;4.53;;;;;;;29.40;41.03;99335.44;5039098;56;1137224;-64
2023/07/24 13:40:35;;;;;;;4.25;3.58;;;;;;;29.54;40.63;99333.80;4980566;58;1136833;-63
2023/07/24 13:45:40;;;;;;;4.87;3.42;;;;;;;29.71;40.57;99319.37;5045811;56;1136570;-63
2023/07/24 13:50:46;;;;;;;8.65;3.12;;;;;;;29.78;39.71;99314.20;5034743;57;1136490;-64
2023/07/24 13:55:51;;;;;;;8.25;3.75;;;;;;;29.80;39.79;99307.35;5043158;57;1136565;-65
2023/07/24 14:00:57;;;;;;;3.87;3.58;;;;;;;29.80;38.29;99287.45;5113004;56;1136837;-65
2023/07/24 14:06:03;;;;;;;6.90;3.37;;;;;;;29.79;38.70;99289.94;5046543;57;1136856;-65
2023/07/24 14:11:08;;;;;;;4.28;3.65;;;;;;;29.74;36.61;99280.67;4929717;58;1136544;-65
2023/07/24 14:16:14;;;;;;;4.37;3.50;;;;;;;29.58;36.38;99277.69;5015022;57;1136811;-64
2023/07/24 14:21:20;;;;;;;2.92;2.72;;;;;;;29.47;35.91;99263.80;5020762;57;1136522;-63
2023/07/24 14:26:25;;;;;;;4.20;3.42;;;;;;;29.47;37.10;99243.91;5025817;57;1136645;-65
2023/07/24 14:31:31;;;;;;;15.50;4.55;;;;;;;29.49;36.23;99251.24;5022080;57;1136656;-65
2023/07/24 14:36:36;;;;;;;6.22;4.17;;;;;;;29.64;37.06;99235.69;5079059;57;1138716;-65
2023/07/24 14:41:42;;;;;;;3.35;3.05;;;;;;;29.69;36.33;99237.60;4980226;58;1136558;-65
2023/07/24 14:46:47;;;;;;;8.35;3.87;;;;;;;29.64;35.84;99231.61;5113714;56;1136996;-65
2023/07/24 14:51:53;;;;;;;4.97;4.12;;;;;;;29.66;37.30;99214.44;5130500;56;1136476;-65
2023/07/24 14:57:01;;;;;;;6.85;4.12;;;;;;;29.78;36.29;99201.90;5146233;56;1136634;-65
2023/07/24 15:02:07;;;;;;;6.42;4.62;;;;;;;29.82;36.29;99192.59;5127158;56;1136560;-65
2023/07/24 15:07:13;;;;;;;4.87;4.37;;;;;;;29.85;35.33;99179.23;5108310;56;1136550;-65
2023/07/24 15:12:19;;;;;;;5.70;5.10;;;;;;;29.79;34.56;99178.19;5164638;56;1136579;-65
2023/07/24 15:17:24;;;;;;;9.05;5.00;;;;;;;29.73;35.58;99170.56;5127919;56;1136539;-65
2023/07/24 15:22:30;;;;;;;8.65;5.58;;;;;;;29.63;35.74;99161.88;5088429;56;1136321;-66
2023/07/24 15:27:35;;;;;;;7.12;5.62;;;;;;;29.51;35.04;99155.06;5118068;56;1136386;-65
2023/07/24 15:32:41;;;;;;;11.95;9.88;;;;;;;29.36;34.59;99147.71;5132239;56;1137064;-65
2023/07/24 15:37:48;;;;;;;9.55;6.67;;;;;;;29.29;35.37;99139.84;5069935;57;1138365;-65
2023/07/24 15:42:54;;;;;;;11.15;9.75;;;;;;;29.24;35.96;99125.41;5035142;57;1136666;-66
2023/07/24 15:47:59;;;;;;;16.10;7.72;;;;;;;29.21;36.19;99116.42;5039339;56;1138928;-65
2023/07/24 15:53:05;;;;;;;8.48;7.58;;;;;;;29.16;36.47;99114.54;4982197;57;1138676;-66
2023/07/24 15:58:10;;;;;;;11.48;7.30;;;;;;;29.16;36.78;99100.11;5064414;56;1136723;-65
2023/07/24 16:03:16;;;;;;;12.85;7.12;;;;;;;29.14;37.34;99092.75;5074057;56;1138668;-65
2023/07/24 16:08:22;;;;;;;9.63;6.58;;;;;;;29.13;37.95;99079.69;4982087;57;1138650;-65
2023/07/24 16:13:27;;;;;;;6.90;5.65;;;;;;;29.17;37.97;99073.97;5035117;57;1136812;-66
2023/07/24 16:18:33;;;;;;;5.80;5.03;;;;;;;29.15;37.82;99054.91;4951927;56;1136893;-64
2023/07/24 16:23:40;;;;;;;7.92;5.97;;;;;;;29.12;38.35;99053.55;5030017;58;1136813;-64
2023/07/24 16:28:46;;;;;;;10.03;6.45;;;;;;;29.04;38.10;99052.19;4978180;57;1136907;-66
2023/07/24 16:33:54;;;;;;;8.58;6.05;;;;;;;28.98;38.66;99044.32;5030310;58;1139067;-65
2023/07/24 16:39:00;;;;;;;7.05;6.33;;;;;;;28.96;39.18;99035.61;5088053;56;1136727;-65
2023/07/24 16:44:07;;;;;;;14.30;5.30;;;;;;;28.95;39.05;99025.27;5064489;56;1136630;-66
2023/07/24 16:49:13;;;;;;;13.78;7.35;;;;;;;28.98;39.64;99010.30;5073739;57;1138987;-64
2023/07/24 16:54:19;;;;;;;10.65;7.12;;;;;;;29.01;39.82;99016.55;5054534;56;1138675;-65
2023/07/24 16:59:26;;;;;;;10.70;6.58;;;;;;;28.90;39.65;99029.34;5053955;57;1138628;-65
2023/07/24 17:04:31;;;;;;;14.23;6.40;;;;;;;28.75;39.95;99025.80;5083550;56;1138593;-65
2023/07/24 17:09:37;;;;;;;8.00;6.42;;;;;;;28.63;40.42;99020.64;5007350;56;1138938;-65
2023/07/24 17:14:43;;;;;;;8.08;6.78;;;;;;;28.53;41.09;99014.68;5001372;58;1136592;-64
2023/07/24 17:19:48;;;;;;;14.78;8.43;;;;;;;28.47;41.67;99019.02;5094203;56;1136861;-64
2023/07/24 17:24:54;;;;;;;13.50;7.53;;;;;;;28.38;42.04;99031.54;5083745;57;1138632;-65
2023/07/24 17:29:59;;;;;;;9.20;7.15;;;;;;;28.30;42.77;99026.89;5083165;56;1138644;-65
2023/07/24 17:35:06;;;;;;;17.42;7.72;;;;;;;28.23;43.30;99028.27;5083857;56;1136739;-65
2023/07/24 17:40:12;;;;;;;11.00;7.57;;;;;;;28.16;43.60;99010.00;5036059;56;1138773;-65
2023/07/24 17:45:18;;;;;;;7.95;6.92;;;;;;;28.10;43.92;99010.55;5084529;57;1138776;-64
2023/07/24 17:50:23;;;;;;;10.80;6.45;;;;;;;27.99;43.76;99023.29;5082434;56;1136916;-65
2023/07/24 17:55:29;;;;;;;15.53;7.03;;;;;;;27.92;43.84;99032.80;5079296;57;1138762;-64
2023/07/24 18:00:34;;;;;;;9.93;7.17;;;;;;;27.82;44.18;99022.70;5094110;56;1139056;-64
2023/07/24 18:05:40;;;;;;;13.93;7.15;;;;;;;27.75;44.39;99015.91;4982867;58;1136657;-65
2023/07/24 18:10:45;;;;;;;24.95;10.95;;;;;;;27.66;44.84;99022.38;5064382;55;1138698;-65
2023/07/24 18:15:51;;;;;;;13.45;8.25;;;;;;;27.61;45.49;99022.38;5020378;57;1140861;-66
2023/07/24 18:20:58;;;;;;;11.70;6.87;;;;;;;27.45;46.28;99017.41;5056080;56;1138938;-66
2023/07/24 18:26:04;;;;;;;10.75;7.83;;;;;;;27.32;46.42;99011.11;5056457;57;1138757;-66
2023/07/24 18:31:09;;;;;;;10.93;6.00;;;;;;;27.18;47.41;99023.52;5040609;57;1138873;-65
2023/07/24 18:36:15;;;;;;;18.67;6.78;;;;;;;26.80;49.34;99043.59;5025123;57;1138873;-64
2023/07/24 18:41:20;;;;;;;10.53;4.92;;;;;;;26.50;51.05;99051.77;5064656;57;1138884;-65
2023/07/24 18:46:26;;;;;;;6.55;4.60;;;;;;;26.30;52.36;99042.63;5039861;57;1138786;-65
2023/07/24 18:51:32;;;;;;;11.25;4.90;;;;;;;26.22;53.29;99048.77;5035277;56;1136652;-64
2023/07/24 18:56:37;;;;;;;8.73;4.10;;;;;;;26.12;54.14;99069.01;5059002;57;1138825;-64
2023/07/24 19:01:43;;;;;;;5.42;4.37;;;;;;;26.10;54.85;99064.37;4982844;58;1136701;-65
2023/07/24 19:06:49;;;;;;;30.15;8.55;;;;;;;26.02;55.49;99049.91;4982931;58;1136537;-64
2023/07/24 19:11:54;;;;;;;31.50;15.65;;;;;;;25.94;55.89;99057.16;4997663;57;1138854;-64
2023/07/24 19:17:00;;;;;;;53.75;28.12;;;;;;;25.86;56.30;99063.02;5181594;55;1140745;-65
2023/07/24 19:22:06;;;;;;;120.90;54.63;;;;;;;25.81;56.91;99069.75;5128377;56;1140863;-65
2023/07/24 19:27:12;;;;;;;119.60;52.90;;;;;;;25.71;57.67;99080.44;5008687;57;1142816;-64
2023/07/24 19:32:18;;;;;;;83.47;37.50;;;;;;;25.52;57.75;99090.72;5061792;56;1142912;-65
2023/07/24 19:37:24;;;;;;;68.25;30.05;;;;;;;25.49;58.78;99094.77;4943231;58;1140802;-65
2023/07/24 19:42:30;;;;;;;41.30;19.23;;;;;;;25.41;59.51;99092.48;5024621;56;1141104;-64
2023/07/24 19:47:36;;;;;;;41.02;20.57;;;;;;;25.20;59.54;99090.05;5095858;56;1141066;-64
2023/07/24 19:52:46;;;;;;;35.17;16.20;;;;;;;24.95;60.06;99095.05;5075916;56;1140821;-65
2023/07/24 19:57:49;;;;;;;29.20;12.95;;;;;;;24.67;60.71;99101.87;5080950;56;1140979;-65
2023/07/24 20:02:55;;;;;;;29.52;15.32;;;;;;;24.54;61.77;99109.77;4954440;57;1141060;-64
2023/07/24 20:08:01;;;;;;;13.95;8.95;;;;;;;24.56;63.15;99091.42;4939110;58;1141193;-65
2023/07/24 20:13:08;;;;;;;15.25;5.90;;;;;;;24.56;63.40;99075.73;5015969;57;1138863;-66
2023/07/24 20:18:14;;;;;;;10.90;5.47;;;;;;;24.54;64.04;99051.65;5003341;56;1139176;-65
2023/07/24 20:23:21;;;;;;;20.55;12.28;;;;;;;24.36;63.77;99074.84;4989895;57;1138876;-66
2023/07/24 20:28:26;;;;;;;13.50;6.67;;;;;;;24.32;64.78;99060.17;5024838;56;1140856;-65
2023/07/24 20:33:32;;;;;;;12.40;5.35;;;;;;;24.30;65.17;99051.48;5024749;56;1138825;-65
2023/07/24 20:38:39;;;;;;;11.08;5.33;;;;;;;24.31;65.32;99053.12;5040726;57;1138942;-65
2023/07/24 20:43:44;;;;;;;9.20;5.22;;;;;;;24.19;65.55;99036.42;4950376;57;1138958;-64
2023/07/24 20:48:50;;;;;;;9.90;4.50;;;;;;;24.16;65.63;99036.91;5024504;56;1136916;-65
2023/07/24 20:53:58;;;;;;;7.55;5.15;;;;;;;24.11;65.63;99042.77;5060525;55;1136593;-64
2023/07/24 20:59:03;;;;;;;8.13;4.62;;;;;;;23.87;65.83;99057.42;5025095;56;1136781;-65
2023/07/24 21:04:08;;;;;;;6.12;4.72;;;;;;;23.76;66.54;99056.41;5024819;57;1136639;-66
2023/07/24 21:09:14;;;;;;;8.88;5.37;;;;;;;23.58;67.22;99068.72;5024696;56;1136797;-66
2023/07/24 21:14:19;;;;;;;7.50;4.50;;;;;;;23.29;67.73;99067.80;5095910;56;1136823;-65
2023/07/24 21:19:25;;;;;;;7.37;4.87;;;;;;;23.31;68.84;99067.86;5034014;56;1136771;-65
2023/07/24 21:24:31;;;;;;;6.05;4.72;;;;;;;23.26;69.37;99058.83;5024533;56;1136871;-66
2023/07/24 21:29:37;;;;;;;4.83;4.15;;;;;;;23.15;70.46;99128.75;5044405;57;1136654;-65
2023/07/24 21:34:42;;;;;;;7.92;3.65;;;;;;;22.32;75.53;99243.25;5024916;57;1136787;-65
2023/07/24 21:39:48;;;;;;;3.87;2.90;;;;;;;21.67;85.27;99233.50;4967884;57;1136590;-65
2023/07/24 21:44:54;;;;;;;9.58;4.05;;;;;;;21.08;84.70;99190.97;5052573;56;1137038;-65
2023/07/24 21:50:00;;;;;;;12.55;7.10;;;;;;;20.88;85.59;99133.84;5023816;57;1136866;-65
2023/07/24 21:55:06;;;;;;;11.30;4.42;;;;;;;21.05;86.21;99102.16;5024325;57;1139308;-65
2023/07/24 22:00:13;;;;;;;7.58;3.72;;;;;;;21.23;86.31;99123.44;5031810;57;1139024;-67
2023/07/24 22:05:18;;;;;;;6.73;3.53;;;;;;;21.31;87.90;99103.80;4975395;57;1136854;-65
2023/07/24 22:10:24;;;;;;;7.13;3.43;;;;;;;21.39;86.96;99113.42;4943652;58;1136584;-65
2023/07/24 22:15:30;;;;;;;7.08;3.58;;;;;;;21.55;87.06;99119.56;5013023;57;1136895;-65
2023/07/24 22:20:36;;;;;;;8.73;3.92;;;;;;;21.58;87.16;99094.08;5098286;57;1136845;-65
2023/07/24 22:25:43;;;;;;;7.58;3.45;;;;;;;21.47;88.50;99072.80;5025039;56;1136832;-67
2023/07/24 22:30:49;;;;;;;6.85;3.80;;;;;;;21.27;88.82;99060.91;5006073;57;1137027;-65
2023/07/24 22:36:01;;;;;;;5.05;3.27;;;;;;;21.21;91.30;99047.55;5003933;57;1137043;-65
2023/07/24 22:41:14;;;;;;;5.20;3.30;;;;;;;21.06;89.92;99054.08;5065370;56;1136901;-66
2023/07/24 22:46:19;;;;;;;6.00;3.87;;;;;;;21.10;89.94;99063.84;5079430;56;1136688;-64
2023/07/24 22:51:25;;;;;;;4.50;3.13;;;;;;;20.98;89.52;99066.44;5025266;57;1136788;-65
2023/07/24 22:56:30;;;;;;;4.67;3.25;;;;;;;20.88;90.63;99078.23;5065746;56;1136816;-65
2023/07/24 23:01:36;;;;;;;24.87;9.83;;;;;;;20.48;91.82;99076.89;5079148;56;1136702;-65
2023/07/24 23:06:42;;;;;;;7.90;3.40;;;;;;;20.18;92.75;99081.50;5024958;57;1139021;-66
2023/07/24 23:11:47;;;;;;;9.48;3.00;;;;;;;20.07;94.09;99084.88;5044817;57;1136577;-65
2023/07/24 23:16:53;;;;;;;7.55;3.25;;;;;;;19.93;96.90;99102.09;5028094;56;1136619;-65
2023/07/24 23:21:58;;;;;;;5.05;3.17;;;;;;;19.93;96.90;99102.09;5020576;57;1136470;-65